createdAt,value
2018-06-22T00:01:40.523Z,10.75
2018-06-22T00:04:09.542Z,10.72
2018-06-22T00:06:38.111Z,10.73
2018-06-22T00:09:09.163Z,10.71
2018-06-22T00:11:37.791Z,10.76
2018-06-22T00:14:06.582Z,10.77
2018-06-22T00:16:35.124Z,10.79
2018-06-22T00:19:03.866Z,10.80
2018-06-22T00:21:32.652Z,10.77
2018-06-22T00:24:01.268Z,10.70
2018-06-22T00:26:29.788Z,10.70
2018-06-22T00:28:58.379Z,10.75
2018-06-22T00:31:27.081Z,10.69
2018-06-22T00:33:55.650Z,10.64
2018-06-22T00:36:24.418Z,10.65
2018-06-22T00:38:53.002Z,10.61
2018-06-22T00:41:21.655Z,10.60
2018-06-22T00:43:50.275Z,10.55
2018-06-22T00:46:18.896Z,10.57
2018-06-22T00:48:47.894Z,10.53
2018-06-22T00:51:16.714Z,10.57
2018-06-22T00:53:56.510Z,10.49
2018-06-22T00:56:25.436Z,10.43
2018-06-22T00:58:54.223Z,10.43
2018-06-22T01:01:23.154Z,10.40
2018-06-22T01:03:51.622Z,10.37
2018-06-22T01:06:20.442Z,10.41
2018-06-22T01:08:49.093Z,10.35
2018-06-22T01:11:17.634Z,10.40
2018-06-22T01:13:46.236Z,10.43
2018-06-22T01:16:14.741Z,10.36
2018-06-22T01:18:43.359Z,10.38
2018-06-22T01:21:11.865Z,10.40
2018-06-22T01:23:40.463Z,10.41
2018-06-22T01:26:09.113Z,10.45
2018-06-22T01:28:37.688Z,10.53
2018-06-22T01:31:06.452Z,10.49
2018-06-22T01:33:35.091Z,10.50
2018-06-22T01:36:03.633Z,10.55
2018-06-22T01:38:32.568Z,10.59
2018-06-22T01:41:01.161Z,10.66
2018-06-22T01:43:29.746Z,10.64
2018-06-22T01:45:58.314Z,10.68
2018-06-22T01:48:27.003Z,10.61
2018-06-22T01:50:55.906Z,10.61
2018-06-22T01:53:24.439Z,10.60
2018-06-22T01:55:52.983Z,10.62
2018-06-22T01:58:21.697Z,10.67
2018-06-22T02:00:50.248Z,10.64
2018-06-22T02:03:18.782Z,10.69
2018-06-22T02:05:47.477Z,10.67
2018-06-22T02:08:16.101Z,10.70
2018-06-22T02:10:44.661Z,10.64
2018-06-22T02:13:13.276Z,10.59
2018-06-22T02:15:45.257Z,10.57
2018-06-22T02:18:13.835Z,10.55
2018-06-22T02:20:42.521Z,10.60
2018-06-22T02:23:10.983Z,10.64
2018-06-22T02:25:39.666Z,10.68
2018-06-22T02:28:08.231Z,10.69
2018-06-22T02:30:36.749Z,10.69
2018-06-22T02:33:05.672Z,10.70
2018-06-22T02:35:34.300Z,10.66
2018-06-22T02:38:02.851Z,10.66
2018-06-22T02:40:31.420Z,10.71
2018-06-22T02:43:00.030Z,10.71
2018-06-22T02:45:28.555Z,10.66
2018-06-22T02:47:57.123Z,10.66
2018-06-22T02:50:25.841Z,10.67
2018-06-22T02:52:54.361Z,10.70
2018-06-22T02:55:23.442Z,10.71
2018-06-22T02:57:52.055Z,10.73
2018-06-22T03:00:20.607Z,10.76
2018-06-22T03:02:49.249Z,10.75
2018-06-22T03:05:17.815Z,10.80
2018-06-22T03:07:46.387Z,10.78
2018-06-22T03:10:14.983Z,10.81
2018-06-22T03:12:43.759Z,10.76
2018-06-22T03:15:12.255Z,10.79
2018-06-22T03:17:40.854Z,10.81
2018-06-22T03:20:09.418Z,10.83
2018-06-22T03:22:38.005Z,10.83
2018-06-22T03:25:06.518Z,10.81
2018-06-22T03:27:35.084Z,10.88
2018-06-22T03:30:03.766Z,10.88
2018-06-22T03:32:32.362Z,10.85
2018-06-22T03:35:01.319Z,10.90
2018-06-22T03:37:30.204Z,10.98
2018-06-22T03:39:58.781Z,10.95
2018-06-22T03:42:27.428Z,11.01
2018-06-22T03:44:56.061Z,11.03
2018-06-22T03:47:24.577Z,11.01
2018-06-22T03:49:53.438Z,11.00
2018-06-22T03:52:21.919Z,10.98
2018-06-22T03:54:50.473Z,11.07
2018-06-22T03:57:19.792Z,11.03
2018-06-22T03:59:48.387Z,11.02
2018-06-22T04:02:16.886Z,11.03
2018-06-22T04:04:45.515Z,11.02
2018-06-22T04:07:14.130Z,11.05
2018-06-22T04:09:42.781Z,11.07
2018-06-22T04:12:11.595Z,11.04
2018-06-22T04:14:40.300Z,11.10
2018-06-22T04:17:08.875Z,11.14
2018-06-22T04:19:37.506Z,11.16
2018-06-22T04:22:06.251Z,11.14
2018-06-22T04:24:35.212Z,11.23
2018-06-22T04:27:04.226Z,11.25
2018-06-22T04:29:32.734Z,11.21
2018-06-22T04:32:01.269Z,11.17
2018-06-22T04:34:29.902Z,11.12
2018-06-22T04:36:58.621Z,11.06
2018-06-22T04:39:27.260Z,10.97
2018-06-22T04:41:55.960Z,10.91
2018-06-22T04:44:24.472Z,11.03
2018-06-22T04:46:53.005Z,10.93
2018-06-22T04:49:21.993Z,10.93
2018-06-22T04:51:56.355Z,10.88
2018-06-22T04:54:26.833Z,10.93
2018-06-22T04:56:55.562Z,10.91
2018-06-22T04:59:24.613Z,11.03
2018-06-22T05:01:53.341Z,11.01
2018-06-22T05:04:22.630Z,10.88
2018-06-22T05:06:51.362Z,10.99
2018-06-22T05:09:20.838Z,10.95
2018-06-22T05:11:49.408Z,10.97
2018-06-22T05:14:18.172Z,11.00
2018-06-22T05:16:46.722Z,11.05
2018-06-22T05:19:15.251Z,11.06
2018-06-22T05:21:44.126Z,11.08
2018-06-22T05:24:12.763Z,10.98
2018-06-22T05:26:41.343Z,11.01
2018-06-22T05:29:11.005Z,10.99
2018-06-22T05:31:39.755Z,10.85
2018-06-22T05:34:08.365Z,10.88
2018-06-22T05:36:36.935Z,10.86
2018-06-22T05:39:08.426Z,10.77
2018-06-22T05:41:37.217Z,10.71
2018-06-22T05:44:05.758Z,10.67
2018-06-22T05:46:34.410Z,10.73
2018-06-22T05:49:02.978Z,10.78
2018-06-22T05:51:31.549Z,10.78
2018-06-22T05:54:00.316Z,10.72
2018-06-22T05:56:28.987Z,10.78
2018-06-22T05:58:57.570Z,10.89
2018-06-22T06:01:26.387Z,10.91
2018-06-22T06:03:55.521Z,10.93
2018-06-22T06:06:24.140Z,10.84
2018-06-22T06:08:53.146Z,10.70
2018-06-22T06:11:21.889Z,10.81
2018-06-22T06:13:50.809Z,10.73
2018-06-22T06:16:19.354Z,10.79
2018-06-22T06:18:48.069Z,10.84
2018-06-22T06:21:16.689Z,10.81
2018-06-22T06:23:45.469Z,10.89
2018-06-22T06:26:14.166Z,10.90
2018-06-22T06:28:42.826Z,10.77
2018-06-22T06:31:11.504Z,10.86
2018-06-22T06:33:40.232Z,10.76
2018-06-22T06:36:08.843Z,10.80
2018-06-22T06:38:37.348Z,10.79
2018-06-22T06:41:06.033Z,10.77
2018-06-22T06:43:34.647Z,10.77
2018-06-22T06:46:03.250Z,10.79
2018-06-22T06:48:31.816Z,10.90
2018-06-22T06:51:00.390Z,10.97
2018-06-22T06:53:28.889Z,11.01
2018-06-22T06:55:57.531Z,10.98
2018-06-22T06:58:26.222Z,10.95
2018-06-22T07:00:54.938Z,11.09
2018-06-22T07:03:23.582Z,11.05
2018-06-22T07:05:52.349Z,11.05
2018-06-22T07:08:21.002Z,11.08
2018-06-22T07:10:49.554Z,11.12
2018-06-22T07:13:18.323Z,11.10
2018-06-22T07:15:47.177Z,10.97
2018-06-22T07:18:15.726Z,11.05
2018-06-22T07:20:44.302Z,11.10
2018-06-22T07:23:12.959Z,10.99
2018-06-22T07:25:41.509Z,11.16
2018-06-22T07:28:10.065Z,11.32
2018-06-22T07:30:38.862Z,11.49
2018-06-22T07:33:07.425Z,11.63
2018-06-22T07:35:35.976Z,11.56
2018-06-22T07:38:04.679Z,11.69
2018-06-22T07:40:33.322Z,11.54
2018-06-22T07:43:01.874Z,11.41
2018-06-22T07:45:30.495Z,11.14
2018-06-22T07:47:59.702Z,11.14
2018-06-22T07:50:28.292Z,11.17
2018-06-22T07:52:56.965Z,11.24
2018-06-22T07:55:27.237Z,11.19
2018-06-22T07:57:55.926Z,11.35
2018-06-22T08:00:30.508Z,11.35
2018-06-22T08:02:59.179Z,11.57
2018-06-22T08:05:27.705Z,11.82
2018-06-22T08:07:56.446Z,11.68
2018-06-22T08:10:25.541Z,11.84
2018-06-22T08:12:54.232Z,12.08
2018-06-22T08:15:22.891Z,12.14
2018-06-22T08:17:51.494Z,12.55
2018-06-22T08:20:20.157Z,12.72
2018-06-22T08:22:48.727Z,12.85
2018-06-22T08:25:17.276Z,12.76
2018-06-22T08:27:45.867Z,13.01
2018-06-22T08:30:14.407Z,13.00
2018-06-22T08:32:43.070Z,12.79
2018-06-22T08:35:11.615Z,12.72
2018-06-22T08:37:41.567Z,12.66
2018-06-22T08:40:10.210Z,12.45
2018-06-22T08:42:38.818Z,12.55
2018-06-22T08:45:07.594Z,12.35
2018-06-22T08:47:36.557Z,12.40
2018-06-22T08:50:05.158Z,12.41
2018-06-22T08:52:33.876Z,12.27
2018-06-22T08:55:02.381Z,12.37
2018-06-22T08:57:31.081Z,12.12
2018-06-22T08:59:59.729Z,12.01
2018-06-22T09:02:28.259Z,11.86
2018-06-22T09:04:56.769Z,11.69
2018-06-22T09:07:25.410Z,11.58
2018-06-22T09:09:53.928Z,11.77
2018-06-22T09:12:22.418Z,11.79
2018-06-22T09:14:50.977Z,11.90
2018-06-22T09:17:19.626Z,12.09
2018-06-22T09:19:48.283Z,12.43
2018-06-22T09:22:16.967Z,12.50
2018-06-22T09:24:45.532Z,12.76
2018-06-22T09:27:14.166Z,12.97
2018-06-22T09:29:42.922Z,13.36
2018-06-22T09:32:11.517Z,13.63
2018-06-22T09:34:40.298Z,13.82
2018-06-22T09:37:08.939Z,14.17
2018-06-22T09:39:37.944Z,14.21
2018-06-22T09:42:06.592Z,14.20
2018-06-22T09:44:37.613Z,14.26
2018-06-22T09:47:06.460Z,14.52
2018-06-22T09:49:35.153Z,14.36
2018-06-22T09:52:03.671Z,14.28
2018-06-22T09:54:32.183Z,14.08
2018-06-22T09:57:00.690Z,14.17
2018-06-22T09:59:29.477Z,14.17
2018-06-22T10:01:58.070Z,14.41
2018-06-22T10:04:29.095Z,14.25
2018-06-22T10:06:57.626Z,14.42
2018-06-22T10:09:26.158Z,14.10
2018-06-22T10:11:54.647Z,14.14
2018-06-22T10:14:23.123Z,14.30
2018-06-22T10:16:51.968Z,14.24
2018-06-22T10:19:20.559Z,14.41
2018-06-22T10:21:49.608Z,14.63
2018-06-22T10:24:18.148Z,14.78
2018-06-22T10:26:46.753Z,14.91
2018-06-22T10:29:15.283Z,15.17
2018-06-22T10:31:43.878Z,15.52
2018-06-22T10:34:12.715Z,15.56
2018-06-22T10:36:41.412Z,15.54
2018-06-22T10:39:13.034Z,15.69
2018-06-22T10:41:42.454Z,15.78
2018-06-22T10:44:11.390Z,15.74
2018-06-22T10:46:41.197Z,15.93
2018-06-22T10:49:10.563Z,16.11
2018-06-22T10:51:39.192Z,16.18
2018-06-22T10:54:10.142Z,16.09
2018-06-22T10:56:39.392Z,16.27
2018-06-22T10:59:08.093Z,16.42
2018-06-22T11:01:36.615Z,16.44
2018-06-22T11:04:05.197Z,16.33
2018-06-22T11:06:33.844Z,16.51
2018-06-22T11:09:03.278Z,16.51
2018-06-22T11:11:31.931Z,16.59
2018-06-22T11:14:00.583Z,16.67
2018-06-22T11:16:29.118Z,16.62
2018-06-22T11:18:57.881Z,16.62
2018-06-22T11:21:31.799Z,16.72
2018-06-22T11:24:00.576Z,16.27
2018-06-22T11:26:29.286Z,16.08
2018-06-22T11:28:57.793Z,16.06
2018-06-22T11:31:26.361Z,16.16
2018-06-22T11:33:55.095Z,16.04
2018-06-22T11:36:23.715Z,15.84
2018-06-22T11:38:52.295Z,15.91
2018-06-22T11:41:20.919Z,15.88
2018-06-22T11:43:49.564Z,15.75
2018-06-22T11:46:18.148Z,15.82
2018-06-22T11:48:46.688Z,15.68
2018-06-22T11:51:15.230Z,15.46
2018-06-22T11:53:43.791Z,15.92
2018-06-22T11:56:12.499Z,16.13
2018-06-22T11:58:41.119Z,16.28
2018-06-22T12:01:09.758Z,16.44
2018-06-22T12:03:38.346Z,16.56
2018-06-22T12:06:07.282Z,16.86
2018-06-22T12:08:35.847Z,16.59
2018-06-22T12:11:04.603Z,16.54
2018-06-22T12:13:33.281Z,16.44
2018-06-22T12:16:02.288Z,16.39
2018-06-22T12:18:30.946Z,16.40
2018-06-22T12:20:59.625Z,16.40
2018-06-22T12:23:28.247Z,16.20
2018-06-22T12:25:56.932Z,16.40
2018-06-22T12:28:25.526Z,16.32
2018-06-22T12:30:54.441Z,16.48
2018-06-22T12:33:23.055Z,16.66
2018-06-22T12:35:51.714Z,16.65
2018-06-22T12:38:20.320Z,16.77
2018-06-22T12:40:48.964Z,17.04
2018-06-22T12:43:17.654Z,16.86
2018-06-22T12:45:46.165Z,16.82
2018-06-22T12:48:15.039Z,16.94
2018-06-22T12:50:43.598Z,16.89
2018-06-22T12:53:12.241Z,16.65
2018-06-22T12:55:41.008Z,16.69
2018-06-22T12:58:09.685Z,16.96
2018-06-22T13:00:38.222Z,17.00
2018-06-22T13:03:07.222Z,16.95
2018-06-22T13:05:35.766Z,16.63
2018-06-22T13:08:04.429Z,16.30
2018-06-22T13:10:33.059Z,15.95
2018-06-22T13:13:01.562Z,16.15
2018-06-22T13:15:30.133Z,16.09
2018-06-22T13:17:58.651Z,16.30
2018-06-22T13:20:27.377Z,16.04
2018-06-22T13:22:56.158Z,16.29
2018-06-22T13:25:24.729Z,16.63
2018-06-22T13:27:53.318Z,16.75
2018-06-22T13:30:21.941Z,16.86
2018-06-22T13:32:50.447Z,17.09
2018-06-22T13:35:19.161Z,17.32
2018-06-22T13:37:48.045Z,17.34
2018-06-22T13:40:16.667Z,17.58
2018-06-22T13:42:45.255Z,17.36
2018-06-22T13:45:13.861Z,17.55
2018-06-22T13:47:42.449Z,17.65
2018-06-22T13:50:11.369Z,17.81
2018-06-22T13:52:40.005Z,17.81
2018-06-22T13:55:08.577Z,17.86
2018-06-22T13:57:37.170Z,17.87
2018-06-22T14:00:06.562Z,18.01
2018-06-22T14:02:35.177Z,18.16
2018-06-22T14:05:09.001Z,18.17
2018-06-22T14:07:37.603Z,17.85
2018-06-22T14:10:06.254Z,17.80
2018-06-22T14:12:35.219Z,17.72
2018-06-22T14:15:03.801Z,17.64
2018-06-22T14:17:32.828Z,17.69
2018-06-22T14:20:01.427Z,17.48
2018-06-22T14:22:30.069Z,17.53
2018-06-22T14:24:58.667Z,17.84
2018-06-22T14:27:27.472Z,18.13
2018-06-22T14:29:56.135Z,18.23
2018-06-22T14:32:24.758Z,17.96
2018-06-22T14:34:53.427Z,18.16
2018-06-22T14:37:22.486Z,18.45
2018-06-22T14:39:51.045Z,18.49
2018-06-22T14:42:20.905Z,18.55
2018-06-22T14:44:49.535Z,18.46
2018-06-22T14:47:18.301Z,18.45
2018-06-22T14:49:46.970Z,18.46
2018-06-22T14:52:16.780Z,18.33
2018-06-22T14:54:50.730Z,18.39
2018-06-22T14:57:24.475Z,18.34
2018-06-22T14:59:58.287Z,18.29
2018-06-22T15:02:32.296Z,18.35
2018-06-22T15:05:08.495Z,18.38
2018-06-22T15:07:42.593Z,18.23
2018-06-22T15:10:11.199Z,18.16
2018-06-22T15:12:39.921Z,18.03
2018-06-22T15:15:14.383Z,17.89
2018-06-22T15:17:48.938Z,18.00
2018-06-22T15:20:17.558Z,18.15
2018-06-22T15:22:46.212Z,18.29
2018-06-22T15:25:15.333Z,18.39
2018-06-22T15:27:43.946Z,18.48
2018-06-22T15:30:12.532Z,18.48
2018-06-22T15:32:41.184Z,18.57
2018-06-22T15:35:15.068Z,18.59
2018-06-22T15:37:49.007Z,18.64
2018-06-22T15:40:22.902Z,18.58
2018-06-22T15:42:58.295Z,18.45
2018-06-22T15:46:31.308Z,18.34
2018-06-22T15:49:05.284Z,18.38
2018-06-22T15:51:39.527Z,18.23
2018-06-22T15:54:13.524Z,18.16
2018-06-22T15:56:42.474Z,18.12
2018-06-22T15:59:11.230Z,18.04
2018-06-22T16:01:39.799Z,17.96
2018-06-22T16:04:10.596Z,17.86
2018-06-22T16:06:39.694Z,17.73
2018-06-22T16:09:10.521Z,17.65
2018-06-22T16:11:39.207Z,17.62
2018-06-22T16:14:13.039Z,17.53
2018-06-22T16:16:46.870Z,17.28
2018-06-22T16:19:20.822Z,17.27
2018-06-22T16:21:54.668Z,17.22
2018-06-22T16:24:28.390Z,17.24
2018-06-22T16:27:02.186Z,17.26
2018-06-22T16:29:30.819Z,17.14
2018-06-22T16:31:59.498Z,17.24
2018-06-22T16:34:28.085Z,17.28
2018-06-22T16:36:56.673Z,17.34
2018-06-22T16:39:25.259Z,17.46
2018-06-22T16:41:54.248Z,17.59
2018-06-22T16:44:23.021Z,17.38
2018-06-22T16:46:51.854Z,17.23
2018-06-22T16:49:20.773Z,17.10
2018-06-22T16:51:49.431Z,17.02
2018-06-22T16:54:18.001Z,17.06
2018-06-22T16:56:46.705Z,17.16
2018-06-22T16:59:15.231Z,17.28
2018-06-22T17:01:43.854Z,17.20
2018-06-22T17:04:15.369Z,17.26
2018-06-22T17:06:49.843Z,17.13
2018-06-22T17:09:23.639Z,17.08
2018-06-22T17:11:57.523Z,17.01
2018-06-22T17:14:31.313Z,16.98
2018-06-22T17:19:06.439Z,16.96
2018-06-22T17:21:35.133Z,16.96
2018-06-22T17:24:04.061Z,16.90
2018-06-22T17:26:32.598Z,16.88
2018-06-22T17:29:01.190Z,16.84
2018-06-22T17:31:29.747Z,16.79
2018-06-22T17:33:58.278Z,16.73
2018-06-22T17:36:26.814Z,16.74
2018-06-22T17:38:55.354Z,16.64
2018-06-22T17:41:24.076Z,16.55
2018-06-22T17:43:53.508Z,16.51
2018-06-22T17:46:22.112Z,16.44
2018-06-22T17:48:50.783Z,16.46
2018-06-22T17:51:19.491Z,16.46
2018-06-22T17:53:48.052Z,16.45
2018-06-22T17:56:36.216Z,16.40
2018-06-22T17:59:10.099Z,16.39
2018-06-22T18:01:43.891Z,16.26
2018-06-22T18:04:17.822Z,16.25
2018-06-22T18:06:51.861Z,16.25
2018-06-22T18:09:25.554Z,16.26
2018-06-22T18:11:59.400Z,16.30
2018-06-22T18:14:31.899Z,16.29
2018-06-22T18:17:01.035Z,16.26
2018-06-22T18:19:29.774Z,16.20
2018-06-22T18:21:58.325Z,16.12
2018-06-22T18:24:27.136Z,16.07
2018-06-22T18:26:55.828Z,16.04
2018-06-22T18:29:24.366Z,15.97
2018-06-22T18:31:53.167Z,16.00
2018-06-22T18:34:21.794Z,16.03
2018-06-22T18:36:50.322Z,16.04
2018-06-22T18:39:19.327Z,16.06
2018-06-22T18:41:49.103Z,16.05
2018-06-22T18:44:18.530Z,16.01
2018-06-22T18:46:47.558Z,15.96
2018-06-22T18:49:17.819Z,15.89
2018-06-22T18:51:46.737Z,15.80
2018-06-22T18:54:20.944Z,15.70
2018-06-22T18:56:54.724Z,15.62
2018-06-22T18:59:28.953Z,15.58
2018-06-22T19:02:04.643Z,15.49
2018-06-22T19:04:33.229Z,15.45
2018-06-22T19:07:04.102Z,15.36
2018-06-22T19:09:33.543Z,15.37
2018-06-22T19:12:03.833Z,15.34
2018-06-22T19:14:32.976Z,15.30
2018-06-22T19:17:03.767Z,15.27
2018-06-22T19:19:34.312Z,15.19
2018-06-22T19:22:02.899Z,15.09
2018-06-22T19:24:32.046Z,15.07
2018-06-22T19:27:01.228Z,15.04
2018-06-22T19:32:29.293Z,15.00
2018-06-22T19:35:03.702Z,15.00
2018-06-22T19:37:34.601Z,14.98
2018-06-22T19:40:03.379Z,14.90
2018-06-22T19:42:31.939Z,14.88
2018-06-22T19:45:05.940Z,14.86
2018-06-22T19:47:39.843Z,14.87
2018-06-22T19:50:13.742Z,14.87
2018-06-22T19:52:47.533Z,15.00
2018-06-22T19:55:16.144Z,14.94
2018-06-22T19:57:44.903Z,14.86
2018-06-22T20:00:13.551Z,14.87
2018-06-22T20:02:42.290Z,14.80
2018-06-22T20:05:11.272Z,14.73
2018-06-22T20:07:39.891Z,14.76
2018-06-22T20:10:08.776Z,14.71
2018-06-22T20:12:37.495Z,14.76
2018-06-22T20:15:06.597Z,14.68
2018-06-22T20:17:35.653Z,14.62
2018-06-22T20:20:05.427Z,14.64
2018-06-22T20:22:33.977Z,14.61
2018-06-22T20:25:09.825Z,14.57
2018-06-22T20:27:42.345Z,14.58
2018-06-22T20:30:11.034Z,14.58
2018-06-22T20:32:39.714Z,14.54
2018-06-22T20:35:13.380Z,14.47
2018-06-22T20:37:47.127Z,14.52
2018-06-22T20:40:21.170Z,14.44
2018-06-22T20:42:53.858Z,14.49
2018-06-22T20:45:27.950Z,14.42
2018-06-22T20:48:01.766Z,14.43
2018-06-22T20:50:36.506Z,14.43
2018-06-22T20:53:05.868Z,14.39
2018-06-22T20:55:35.856Z,14.44
2018-06-22T20:58:04.917Z,14.42
2018-06-22T21:00:33.594Z,14.39
2018-06-22T21:03:02.181Z,14.35
2018-06-22T21:05:32.282Z,14.32
2018-06-22T21:08:01.028Z,14.32
2018-06-22T21:10:29.669Z,14.28
2018-06-22T21:12:58.982Z,14.29
2018-06-22T21:15:27.529Z,14.26
2018-06-22T21:17:56.343Z,14.18
2018-06-22T21:20:24.982Z,14.24
2018-06-22T21:22:53.517Z,14.13
2018-06-22T21:25:22.292Z,14.10
2018-06-22T21:27:56.404Z,14.08
2018-06-22T21:30:30.264Z,14.08
2018-06-22T21:33:05.759Z,14.06
2018-06-22T21:35:39.727Z,14.03
2018-06-22T21:38:14.128Z,14.00
2018-06-22T21:40:42.870Z,13.96
2018-06-22T21:43:11.452Z,13.89
2018-06-22T21:45:40.203Z,13.93
2018-06-22T21:48:09.114Z,13.90
2018-06-22T21:50:37.949Z,13.85
2018-06-22T21:53:06.524Z,13.79
2018-06-22T21:55:35.282Z,13.83
2018-06-22T21:58:03.985Z,13.79
2018-06-22T22:00:34.025Z,13.75
2018-06-22T22:03:03.305Z,13.77
2018-06-22T22:05:32.434Z,13.70
2018-06-22T22:08:01.191Z,13.66
2018-06-22T22:10:35.035Z,13.64
2018-06-22T22:13:03.601Z,13.67
2018-06-22T22:15:32.389Z,13.61
2018-06-22T22:18:01.099Z,13.56
2018-06-22T22:20:29.656Z,13.57
2018-06-22T22:22:58.330Z,13.57
2018-06-22T22:25:27.015Z,13.54
2018-06-22T22:27:55.569Z,13.53
2018-06-22T22:30:24.189Z,13.57
2018-06-22T22:32:52.762Z,13.57
2018-06-22T22:35:21.342Z,13.53
2018-06-22T22:37:49.927Z,13.49
2018-06-22T22:40:18.612Z,13.46
2018-06-22T22:42:47.322Z,13.47
2018-06-22T22:45:16.062Z,13.49
2018-06-22T22:47:44.639Z,13.45
2018-06-22T22:50:13.190Z,13.44
2018-06-22T22:52:41.793Z,13.47
2018-06-22T22:55:10.378Z,13.44
2018-06-22T22:57:38.938Z,13.42
2018-06-22T23:00:07.596Z,13.44
2018-06-22T23:02:36.120Z,13.42
2018-06-22T23:05:04.726Z,13.46
2018-06-22T23:07:33.239Z,13.46
2018-06-22T23:10:01.873Z,13.47
2018-06-22T23:12:30.405Z,13.43
2018-06-22T23:14:59.003Z,13.40
2018-06-22T23:17:27.566Z,13.40
2018-06-22T23:19:56.260Z,13.40
2018-06-22T23:22:36.236Z,13.38
2018-06-22T23:25:05.015Z,13.35
2018-06-22T23:27:33.656Z,13.40
2018-06-22T23:30:02.319Z,13.38
2018-06-22T23:32:30.899Z,13.37
2018-06-22T23:34:59.582Z,13.37
2018-06-22T23:37:28.143Z,13.33
2018-06-22T23:39:56.833Z,13.36
2018-06-22T23:42:25.416Z,13.34
2018-06-22T23:44:53.988Z,13.28
2018-06-22T23:47:22.475Z,13.30
2018-06-22T23:49:51.216Z,13.28
2018-06-22T23:52:19.822Z,13.31
2018-06-22T23:54:48.343Z,13.31
2018-06-22T23:57:16.944Z,13.30
2018-06-22T23:59:45.596Z,13.27
